Time;durP1;ratioP1;P1;durP2;ratioP2;P2;SDS_P1;SDS_P2;PMS_P1;PMS_P2;Temp;Humidity;BMP_temperature;BMP_pressure;BME280_temperature;BME280_humidity;BME280_pressure;Samples;Min_cycle;Max_cycle;Signal;HPM_P1;HPM_P2
2023/06/18 00:01:17;;;;;;;11.00;6.25;;;;;;;;;;5062717;27;100193;-77
2023/06/18 00:03:44;;;;;;;13.60;5.80;;;;;;;;;;5056804;27;99170;-77
2023/06/18 00:06:11;;;;;;;11.40;6.30;;;;;;;;;;5069517;27;98161;-78
2023/06/18 00:08:37;;;;;;;10.75;5.32;;;;;;;;;;5054203;27;101094;-77
2023/06/18 00:11:04;;;;;;;11.55;5.70;;;;;;;;;;5055023;27;99131;-76
2023/06/18 00:13:31;;;;;;;10.48;5.35;;;;;;;;;;5061711;27;99197;-77
2023/06/18 00:15:57;;;;;;;12.55;6.15;;;;;;;;;;5063120;27;99362;-76
2023/06/18 00:18:23;;;;;;;14.43;8.30;;;;;;;;;;5055994;27;101315;-76
2023/06/18 00:20:50;;;;;;;11.30;6.40;;;;;;;;;;5057413;27;98281;-77
2023/06/18 00:23:16;;;;;;;12.25;6.25;;;;;;;;;;5068172;27;98943;-76
2023/06/18 00:25:43;;;;;;;12.63;6.63;;;;;;;;;;5058234;27;99758;-76
2023/06/18 00:28:09;;;;;;;11.82;6.65;;;;;;;;;;5053407;27;98548;-76
2023/06/18 00:30:36;;;;;;;9.65;5.65;;;;;;;;;;5055378;27;101756;-76
2023/06/18 00:33:03;;;;;;;10.77;5.82;;;;;;;;;;5061104;27;99098;-76
2023/06/18 00:35:31;;;;;;;12.23;6.88;;;;;;;;;;5067209;27;99663;-76
2023/06/18 00:37:59;;;;;;;11.90;6.10;;;;;;;;;;5054671;27;98830;-76
2023/06/18 00:40:25;;;;;;;10.43;5.68;;;;;;;;;;5062824;27;98467;-76
2023/06/18 00:42:52;;;;;;;11.68;6.22;;;;;;;;;;5052701;27;101011;-76
2023/06/18 00:45:20;;;;;;;10.98;6.38;;;;;;;;;;5064081;27;98303;-76
2023/06/18 00:47:48;;;;;;;11.05;5.88;;;;;;;;;;5058826;27;99031;-76
2023/06/18 00:50:16;;;;;;;12.30;6.50;;;;;;;;;;5066081;27;98042;-76
2023/06/18 00:52:47;;;;;;;11.60;5.82;;;;;;;;;;5070308;27;103035;-76
2023/06/18 00:55:18;;;;;;;10.98;6.03;;;;;;;;;;5065973;27;98352;-76
2023/06/18 00:57:49;;;;;;;11.05;6.15;;;;;;;;;;5068418;27;99385;-76
2023/06/18 01:00:19;;;;;;;10.48;6.35;;;;;;;;;;5059998;27;98225;-76
2023/06/18 01:02:49;;;;;;;10.73;6.47;;;;;;;;;;5075275;27;100303;-76
2023/06/18 01:05:20;;;;;;;12.77;6.75;;;;;;;;;;5063469;27;99083;-76
2023/06/18 01:07:49;;;;;;;11.10;6.82;;;;;;;;;;5061457;27;99243;-77
2023/06/18 01:10:17;;;;;;;13.05;7.32;;;;;;;;;;5061474;27;103503;-76
2023/06/18 01:12:48;;;;;;;10.30;5.90;;;;;;;;;;5062919;27;98216;-77
2023/06/18 01:15:15;;;;;;;11.73;6.25;;;;;;;;;;5071530;27;99198;-77
2023/06/18 01:17:47;;;;;;;10.88;6.63;;;;;;;;;;5056830;27;99344;-77
2023/06/18 01:20:16;;;;;;;12.90;6.53;;;;;;;;;;5070184;27;98594;-76
2023/06/18 01:22:46;;;;;;;10.82;6.40;;;;;;;;;;5065216;27;99098;-76
2023/06/18 01:25:13;;;;;;;11.20;6.30;;;;;;;;;;5073215;27;101922;-76
2023/06/18 01:27:43;;;;;;;11.65;6.47;;;;;;;;;;5078860;27;98541;-76
2023/06/18 01:30:11;;;;;;;13.85;6.60;;;;;;;;;;5052736;27;101469;-76
2023/06/18 01:32:38;;;;;;;11.27;6.43;;;;;;;;;;5055002;27;98948;-76
2023/06/18 01:35:05;;;;;;;;;;;;;;;;;;5071288;27;99290;-76
2023/06/18 01:37:46;;;;;;;10.07;6.00;;;;;;;;;;5058025;27;119307;-76
2023/06/18 01:40:13;;;;;;;12.80;6.18;;;;;;;;;;5059195;27;97920;-76
2023/06/18 01:42:47;;;;;;;13.65;7.18;;;;;;;;;;5053492;27;98786;-76
2023/06/18 01:45:13;;;;;;;;;;;;;;;;;;5055933;27;99069;-77
2023/06/18 01:47:42;;;;;;;13.13;6.80;;;;;;;;;;5055036;27;99445;-76
2023/06/18 01:50:10;;;;;;;13.60;6.57;;;;;;;;;;5064953;27;102299;-77
2023/06/18 01:52:40;;;;;;;10.88;6.63;;;;;;;;;;5053786;27;98628;-76
2023/06/18 01:55:08;;;;;;;11.75;6.50;;;;;;;;;;5062321;27;101298;-76
2023/06/18 01:57:35;;;;;;;10.88;6.35;;;;;;;;;;5060156;27;99710;-75
2023/06/18 02:00:04;;;;;;;11.90;6.40;;;;;;;;;;5066862;27;98855;-75
2023/06/18 02:02:38;;;;;;;9.30;5.90;;;;;;;;;;5060198;27;98941;-76
2023/06/18 02:05:06;;;;;;;10.30;6.72;;;;;;;;;;5058988;27;98000;-77
2023/06/18 02:07:33;;;;;;;11.73;6.75;;;;;;;;;;5074763;27;98292;-76
2023/06/18 02:09:59;;;;;;;11.38;6.35;;;;;;;;;;5052327;27;101639;-77
2023/06/18 02:12:26;;;;;;;11.70;6.32;;;;;;;;;;5063000;27;99851;-77
2023/06/18 02:14:52;;;;;;;11.55;6.30;;;;;;;;;;5059543;27;100313;-76
2023/06/18 02:17:19;;;;;;;15.05;6.45;;;;;;;;;;5052837;27;98964;-77
2023/06/18 02:19:45;;;;;;;10.40;6.40;;;;;;;;;;5061552;27;98163;-77
2023/06/18 02:22:12;;;;;;;11.23;6.78;;;;;;;;;;5068312;27;98431;-76
2023/06/18 02:24:39;;;;;;;11.68;6.88;;;;;;;;;;5053904;27;100716;-76
2023/06/18 02:27:05;;;;;;;13.93;7.05;;;;;;;;;;5053776;27;98210;-77
2023/06/18 02:29:32;;;;;;;12.25;6.90;;;;;;;;;;5058717;27;98516;-76
2023/06/18 02:31:59;;;;;;;12.25;6.90;;;;;;;;;;5054425;27;101139;-76
2023/06/18 02:34:27;;;;;;;12.35;7.13;;;;;;;;;;5064401;27;98085;-76
2023/06/18 02:36:54;;;;;;;12.15;6.78;;;;;;;;;;5056857;27;99416;-77
2023/06/18 02:39:21;;;;;;;13.43;7.47;;;;;;;;;;5055319;27;98207;-77
2023/06/18 02:41:48;;;;;;;11.10;7.07;;;;;;;;;;5052487;27;101232;-76
2023/06/18 02:44:14;;;;;;;10.73;6.25;;;;;;;;;;5059483;27;101398;-76
2023/06/18 02:46:41;;;;;;;11.73;7.05;;;;;;;;;;5061791;27;98782;-76
2023/06/18 02:49:07;;;;;;;10.52;6.63;;;;;;;;;;5058890;27;98654;-77
2023/06/18 02:51:34;;;;;;;11.65;6.10;;;;;;;;;;5057906;27;98731;-76
2023/06/18 02:54:01;;;;;;;11.05;6.32;;;;;;;;;;5054762;27;97994;-77
2023/06/18 02:56:28;;;;;;;10.65;6.13;;;;;;;;;;5064563;27;101414;-77
2023/06/18 02:58:58;;;;;;;12.10;6.28;;;;;;;;;;5064065;27;100395;-77
2023/06/18 03:01:27;;;;;;;12.35;6.07;;;;;;;;;;5060090;27;100699;-77
2023/06/18 03:03:55;;;;;;;10.73;6.03;;;;;;;;;;5055584;27;101621;-77
2023/06/18 03:06:24;;;;;;;12.40;6.53;;;;;;;;;;5062618;27;98368;-76
2023/06/18 03:08:51;;;;;;;12.02;6.22;;;;;;;;;;5055689;27;99204;-77
2023/06/18 03:11:17;;;;;;;11.07;6.38;;;;;;;;;;5075555;27;101707;-77
2023/06/18 03:13:44;;;;;;;10.27;6.43;;;;;;;;;;5074134;27;98447;-77
2023/06/18 03:16:11;;;;;;;10.05;5.93;;;;;;;;;;5063173;27;100605;-77
2023/06/18 03:18:38;;;;;;;10.40;6.28;;;;;;;;;;5061048;27;97834;-76
2023/06/18 03:21:05;;;;;;;10.80;6.28;;;;;;;;;;5061478;27;99786;-76
2023/06/18 03:23:32;;;;;;;10.68;6.10;;;;;;;;;;5075509;27;101389;-76
2023/06/18 03:26:03;;;;;;;10.07;6.15;;;;;;;;;;5075853;27;99286;-74
2023/06/18 03:28:31;;;;;;;11.23;5.88;;;;;;;;;;5056671;27;101210;-75
2023/06/18 03:30:58;;;;;;;10.95;5.70;;;;;;;;;;5041281;27;101044;-76
2023/06/18 03:33:29;;;;;;;11.30;6.07;;;;;;;;;;5073420;27;98214;-76
2023/06/18 03:35:59;;;;;;;11.05;6.30;;;;;;;;;;5066409;27;98762;-77
2023/06/18 03:38:28;;;;;;;10.27;6.07;;;;;;;;;;5072317;27;101441;-77
2023/06/18 03:40:58;;;;;;;10.68;5.82;;;;;;;;;;5058941;27;101007;-75
2023/06/18 03:43:26;;;;;;;9.82;5.60;;;;;;;;;;5051596;27;100253;-75
2023/06/18 03:45:52;;;;;;;11.02;5.78;;;;;;;;;;5058727;27;98169;-75
2023/06/18 03:48:19;;;;;;;10.35;6.03;;;;;;;;;;5057362;27;98583;-75
2023/06/18 03:50:46;;;;;;;10.52;5.68;;;;;;;;;;5045748;27;101782;-76
2023/06/18 03:53:12;;;;;;;10.90;5.97;;;;;;;;;;5065482;27;98497;-76
2023/06/18 03:55:41;;;;;;;11.02;6.00;;;;;;;;;;5069547;27;101101;-74
2023/06/18 03:58:11;;;;;;;12.30;5.95;;;;;;;;;;5066220;27;101466;-75
2023/06/18 04:00:38;;;;;;;11.60;6.57;;;;;;;;;;5059957;27;98412;-76
2023/06/18 04:03:06;;;;;;;12.10;5.88;;;;;;;;;;5054991;27;100866;-76
2023/06/18 04:05:33;;;;;;;12.55;6.30;;;;;;;;;;5069653;27;98815;-75
2023/06/18 04:07:59;;;;;;;11.90;6.38;;;;;;;;;;5073960;27;100983;-75
2023/06/18 04:10:26;;;;;;;12.23;6.93;;;;;;;;;;5067407;27;101515;-76
2023/06/18 04:12:53;;;;;;;11.10;6.15;;;;;;;;;;5055905;27;98304;-76
2023/06/18 04:15:20;;;;;;;10.02;5.70;;;;;;;;;;5061346;27;101186;-75
2023/06/18 04:17:46;;;;;;;11.50;6.28;;;;;;;;;;5066337;27;98878;-75
2023/06/18 04:20:14;;;;;;;11.15;6.57;;;;;;;;;;5047071;27;99603;-75
2023/06/18 04:22:42;;;;;;;10.55;5.68;;;;;;;;;;5065051;27;100593;-76
2023/06/18 04:25:10;;;;;;;10.73;5.63;;;;;;;;;;5055582;27;98830;-76
2023/06/18 04:27:38;;;;;;;11.73;7.53;;;;;;;;;;5075605;27;103038;-76
2023/06/18 04:30:06;;;;;;;12.32;7.13;;;;;;;;;;5054986;27;101763;-76
2023/06/18 04:32:32;;;;;;;11.63;7.18;;;;;;;;;;5067784;27;100899;-76
2023/06/18 04:35:00;;;;;;;11.10;7.30;;;;;;;;;;5065888;27;98306;-76
2023/06/18 04:37:29;;;;;;;11.52;6.30;;;;;;;;;;5057234;27;101810;-76
2023/06/18 04:39:56;;;;;;;11.88;6.05;;;;;;;;;;5070253;27;99552;-76
2023/06/18 04:42:23;;;;;;;11.98;6.75;;;;;;;;;;5059166;27;101490;-75
2023/06/18 04:44:50;;;;;;;12.20;6.68;;;;;;;;;;5052709;27;98414;-75
2023/06/18 04:47:17;;;;;;;13.52;6.93;;;;;;;;;;5057090;27;100740;-76
2023/06/18 04:49:44;;;;;;;9.98;6.43;;;;;;;;;;5049062;27;100157;-75
2023/06/18 04:52:12;;;;;;;11.73;6.95;;;;;;;;;;5073822;27;99000;-75
2023/06/18 04:54:40;;;;;;;11.68;6.28;;;;;;;;;;5058909;27;100640;-76
2023/06/18 04:57:07;;;;;;;11.80;7.05;;;;;;;;;;5069588;27;100756;-76
2023/06/18 04:59:36;;;;;;;11.50;6.65;;;;;;;;;;5050454;27;98318;-76
2023/06/18 05:02:03;;;;;;;11.07;6.88;;;;;;;;;;5057895;27;100960;-76
2023/06/18 05:04:29;;;;;;;10.32;6.47;;;;;;;;;;5057286;27;102540;-76
2023/06/18 05:06:58;;;;;;;18.30;6.95;;;;;;;;;;5052838;27;101969;-76
2023/06/18 05:09:28;;;;;;;11.60;6.60;;;;;;;;;;5058207;27;101799;-77
2023/06/18 05:11:55;;;;;;;12.90;6.60;;;;;;;;;;5055984;27;98104;-76
2023/06/18 05:14:22;;;;;;;11.10;6.38;;;;;;;;;;5037814;27;100768;-75
2023/06/18 05:16:48;;;;;;;10.60;6.05;;;;;;;;;;5052298;27;101559;-76
2023/06/18 05:19:15;;;;;;;12.38;6.50;;;;;;;;;;5046872;27;98501;-76
2023/06/18 05:21:42;;;;;;;12.32;6.60;;;;;;;;;;5054387;27;100904;-76
2023/06/18 05:24:10;;;;;;;11.98;6.03;;;;;;;;;;5053189;27;99272;-76
2023/06/18 05:26:37;;;;;;;12.40;6.47;;;;;;;;;;5066896;27;98771;-76
2023/06/18 05:29:03;;;;;;;11.90;6.70;;;;;;;;;;5073093;27;99910;-76
2023/06/18 05:31:30;;;;;;;12.77;6.05;;;;;;;;;;5056737;27;98377;-75
2023/06/18 05:33:59;;;;;;;11.45;6.13;;;;;;;;;;5044941;27;101101;-76
2023/06/18 05:36:26;;;;;;;11.77;6.07;;;;;;;;;;5060858;27;98838;-76
2023/06/18 05:38:58;;;;;;;14.40;6.15;;;;;;;;;;5047077;27;98497;-76
2023/06/18 05:41:27;;;;;;;12.13;6.28;;;;;;;;;;5044048;27;100048;-76
2023/06/18 05:43:54;;;;;;;;;;;;;;;;;;5057343;27;101726;-76
2023/06/18 05:46:20;;;;;;;11.10;6.22;;;;;;;;;;5055151;27;108411;-76
2023/06/18 05:48:47;;;;;;;11.77;6.03;;;;;;;;;;5052948;27;100759;-77
2023/06/18 05:51:17;;;;;;;12.55;6.32;;;;;;;;;;5060521;27;98697;-77
2023/06/18 05:53:44;;;;;;;11.57;6.45;;;;;;;;;;5064124;27;101289;-76
2023/06/18 05:56:12;;;;;;;16.02;7.45;;;;;;;;;;5047414;27;101691;-77
2023/06/18 05:58:39;;;;;;;13.68;7.07;;;;;;;;;;5057753;27;98533;-77
2023/06/18 06:01:05;;;;;;;12.35;6.55;;;;;;;;;;5051648;27;101068;-76
2023/06/18 06:03:35;;;;;;;13.25;7.07;;;;;;;;;;5053883;27;100578;-77
2023/06/18 06:06:02;;;;;;;14.18;7.03;;;;;;;;;;5059990;27;98968;-76
2023/06/18 06:08:30;;;;;;;13.68;8.15;;;;;;;;;;5076060;27;101061;-76
2023/06/18 06:10:59;;;;;;;11.82;6.63;;;;;;;;;;5067943;27;98295;-77
2023/06/18 06:13:25;;;;;;;14.57;7.75;;;;;;;;;;5060158;27;100266;-77
2023/06/18 06:15:55;;;;;;;18.15;7.22;;;;;;;;;;5062515;27;100580;-77
2023/06/18 06:18:22;;;;;;;13.90;8.02;;;;;;;;;;5062656;27;100513;-76
2023/06/18 06:20:48;;;;;;;17.70;7.57;;;;;;;;;;5059731;27;102159;-77
2023/06/18 06:23:15;;;;;;;15.93;9.07;;;;;;;;;;5073069;27;101429;-77
2023/06/18 06:25:42;;;;;;;16.77;9.32;;;;;;;;;;5075697;27;98171;-76
2023/06/18 06:28:10;;;;;;;15.88;8.05;;;;;;;;;;5071989;27;101134;-77
2023/06/18 06:30:37;;;;;;;16.92;10.15;;;;;;;;;;5064838;27;101078;-78
2023/06/18 06:33:05;;;;;;;15.73;8.27;;;;;;;;;;5076887;27;98425;-78
2023/06/18 06:35:33;;;;;;;15.57;7.88;;;;;;;;;;5070565;27;100230;-78
2023/06/18 06:37:59;;;;;;;18.52;10.27;;;;;;;;;;5076096;27;98128;-77
2023/06/18 06:40:26;;;;;;;20.30;9.70;;;;;;;;;;5044551;27;101520;-77
2023/06/18 06:42:53;;;;;;;19.77;9.80;;;;;;;;;;5074410;27;101303;-77
2023/06/18 06:45:27;;;;;;;17.70;9.95;;;;;;;;;;5073906;27;98684;-76
2023/06/18 06:48:03;;;;;;;18.67;9.85;;;;;;;;;;5062550;27;100926;-77
2023/06/18 06:50:52;;;;;;;16.25;9.30;;;;;;;;;;5059996;27;99514;-76
2023/06/18 06:53:39;;;;;;;16.63;9.90;;;;;;;;;;5037623;27;98257;-77
2023/06/18 06:56:06;;;;;;;13.88;8.05;;;;;;;;;;5075350;27;99783;-78
2023/06/18 06:58:33;;;;;;;18.30;8.82;;;;;;;;;;5075296;27;98341;-77
2023/06/18 07:00:59;;;;;;;17.35;9.77;;;;;;;;;;5061060;27;98534;-76
2023/06/18 07:03:26;;;;;;;16.65;7.38;;;;;;;;;;5064011;27;98772;-77
2023/06/18 07:05:53;;;;;;;16.35;9.25;;;;;;;;;;5076894;27;98057;-77
2023/06/18 07:08:19;;;;;;;17.45;9.20;;;;;;;;;;5073358;27;101183;-77
2023/06/18 07:10:46;;;;;;;16.13;8.60;;;;;;;;;;5073425;27;98820;-76
2023/06/18 07:13:12;;;;;;;13.75;7.95;;;;;;;;;;5067663;27;98583;-76
2023/06/18 07:15:39;;;;;;;15.55;8.55;;;;;;;;;;5062396;27;98504;-77
2023/06/18 07:18:05;;;;;;;14.85;8.05;;;;;;;;;;5075290;27;98366;-77
2023/06/18 07:20:35;;;;;;;15.85;8.45;;;;;;;;;;5064132;27;98743;-76
2023/06/18 07:23:02;;;;;;;14.45;7.63;;;;;;;;;;5072899;27;102343;-77
2023/06/18 07:25:28;;;;;;;15.82;9.15;;;;;;;;;;5066405;27;97775;-76
2023/06/18 07:27:55;;;;;;;18.17;10.25;;;;;;;;;;5054330;27;100067;-76
2023/06/18 07:30:21;;;;;;;18.90;9.20;;;;;;;;;;5054326;27;99844;-77
2023/06/18 07:32:48;;;;;;;15.18;8.63;;;;;;;;;;5065826;27;98989;-78
2023/06/18 07:35:15;;;;;;;12.73;7.50;;;;;;;;;;5054447;27;101779;-78
2023/06/18 07:37:42;;;;;;;18.48;9.52;;;;;;;;;;5057774;27;99162;-78
2023/06/18 07:40:08;;;;;;;17.52;9.10;;;;;;;;;;5054969;27;98391;-80
2023/06/18 07:42:35;;;;;;;17.83;9.05;;;;;;;;;;5054839;27;98921;-78
2023/06/18 07:45:02;;;;;;;16.63;9.77;;;;;;;;;;5058047;27;98152;-78
2023/06/18 07:47:28;;;;;;;15.20;7.93;;;;;;;;;;5058849;27;98590;-78
2023/06/18 07:49:55;;;;;;;20.00;10.25;;;;;;;;;;5072619;27;98029;-77
2023/06/18 07:52:22;;;;;;;15.15;9.60;;;;;;;;;;5072007;27;98449;-77
2023/06/18 07:54:49;;;;;;;16.95;9.68;;;;;;;;;;5071763;27;100628;-78
2023/06/18 07:57:15;;;;;;;16.75;9.95;;;;;;;;;;5062294;27;99478;-77
2023/06/18 07:59:42;;;;;;;14.88;8.63;;;;;;;;;;5051258;27;101003;-76
2023/06/18 08:02:08;;;;;;;17.15;10.15;;;;;;;;;;5060866;27;99087;-77
2023/06/18 08:04:35;;;;;;;16.60;11.07;;;;;;;;;;5065270;27;98333;-77
2023/06/18 08:07:02;;;;;;;16.23;9.90;;;;;;;;;;5070002;27;99404;-77
2023/06/18 08:09:29;;;;;;;18.05;10.18;;;;;;;;;;5056874;27;98957;-78
2023/06/18 08:11:56;;;;;;;17.88;10.05;;;;;;;;;;5073553;27;98633;-79
2023/06/18 08:14:26;;;;;;;15.90;10.55;;;;;;;;;;5054176;27;99043;-79
2023/06/18 08:16:53;;;;;;;19.55;10.32;;;;;;;;;;5056445;27;98786;-77
2023/06/18 08:19:20;;;;;;;17.70;10.10;;;;;;;;;;5057535;27;98906;-79
2023/06/18 08:21:47;;;;;;;15.68;8.95;;;;;;;;;;5062616;27;99539;-78
2023/06/18 08:24:14;;;;;;;15.57;9.82;;;;;;;;;;5068975;27;100106;-79
2023/06/18 08:26:41;;;;;;;15.90;9.10;;;;;;;;;;5055254;27;99018;-78
2023/06/18 08:29:08;;;;;;;15.10;9.35;;;;;;;;;;5052713;27;99753;-78
2023/06/18 08:31:35;;;;;;;14.80;8.23;;;;;;;;;;5054859;27;98493;-78
2023/06/18 08:34:01;;;;;;;;;;;;;;;;;;5060356;27;101398;-79
2023/06/18 08:36:28;;;;;;;15.70;8.43;;;;;;;;;;5070456;27;101587;-79
2023/06/18 08:38:55;;;;;;;12.63;7.05;;;;;;;;;;5057433;27;98043;-81
2023/06/18 08:41:21;;;;;;;13.18;7.75;;;;;;;;;;5054164;27;100304;-79
2023/06/18 08:43:48;;;;;;;17.75;7.45;;;;;;;;;;5056097;27;99213;-75
2023/06/18 08:46:15;;;;;;;13.20;8.00;;;;;;;;;;5065070;27;100888;-81
2023/06/18 08:48:44;;;;;;;12.82;6.85;;;;;;;;;;5067252;27;99294;-78
2023/06/18 08:51:11;;;;;;;12.40;7.53;;;;;;;;;;5058325;27;98164;-77
2023/06/18 08:53:44;;;;;;;13.10;8.35;;;;;;;;;;5061829;27;102895;-79
2023/06/18 08:56:12;;;;;;;12.85;6.35;;;;;;;;;;5052665;27;99364;-78
2023/06/18 08:58:57;;;;;;;16.55;8.70;;;;;;;;;;5054071;27;98670;-79
2023/06/18 09:01:24;;;;;;;14.45;7.90;;;;;;;;;;5063267;27;100290;-78
2023/06/18 09:03:55;;;;;;;13.95;8.73;;;;;;;;;;5075069;27;100593;-80
2023/06/18 09:06:22;;;;;;;13.30;8.25;;;;;;;;;;5040932;27;100791;-81
2023/06/18 09:08:49;;;;;;;12.70;7.53;;;;;;;;;;5057255;27;101234;-78
2023/06/18 09:11:16;;;;;;;14.75;7.43;;;;;;;;;;5067248;27;98872;-82
2023/06/18 09:13:43;;;;;;;12.25;6.78;;;;;;;;;;5051602;27;101683;-78
2023/06/18 09:16:10;;;;;;;12.95;6.93;;;;;;;;;;5056758;27;100152;-78
2023/06/18 09:18:37;;;;;;;11.65;7.22;;;;;;;;;;5067328;27;98684;-78
2023/06/18 09:21:03;;;;;;;12.50;7.43;;;;;;;;;;5054449;27;101651;-80
2023/06/18 09:23:30;;;;;;;11.70;7.10;;;;;;;;;;5068575;27;100454;-80
2023/06/18 09:25:57;;;;;;;12.77;7.88;;;;;;;;;;5070011;27;99567;-76
2023/06/18 09:28:24;;;;;;;12.30;7.63;;;;;;;;;;5056588;27;98175;-83
2023/06/18 09:30:57;;;;;;;15.68;8.13;;;;;;;;;;5067682;27;99826;-80
2023/06/18 09:33:26;;;;;;;13.35;7.93;;;;;;;;;;5063065;27;101206;-80
2023/06/18 09:36:02;;;;;;;12.40;7.68;;;;;;;;;;5052073;27;102108;-80
2023/06/18 09:38:47;;;;;;;12.55;7.53;;;;;;;;;;5068030;27;98449;-79
2023/06/18 09:41:13;;;;;;;13.32;8.00;;;;;;;;;;5049296;27;101389;-81
2023/06/18 09:43:43;;;;;;;11.27;6.32;;;;;;;;;;5063871;27;98721;-81
2023/06/18 09:46:10;;;;;;;16.35;8.02;;;;;;;;;;5058567;27;98566;-83
2023/06/18 09:48:40;;;;;;;12.85;7.05;;;;;;;;;;5045940;27;100895;-78
2023/06/18 09:51:07;;;;;;;13.50;7.30;;;;;;;;;;5072709;27;98184;-89
2023/06/18 09:53:34;;;;;;;;;;;;;;;;;;5067240;27;101038;-79
2023/06/18 09:56:11;;;;;;;13.20;8.40;;;;;;;;;;5068478;27;113216;-80
2023/06/18 09:58:39;;;;;;;12.15;6.88;;;;;;;;;;5057780;27;98891;-77
2023/06/18 10:01:05;;;;;;;14.05;8.30;;;;;;;;;;5063484;27;98992;-84
2023/06/18 10:03:32;;;;;;;13.30;8.15;;;;;;;;;;5065516;27;99409;-77
2023/06/18 10:06:07;;;;;;;15.05;9.82;;;;;;;;;;5070459;27;98153;-81
2023/06/18 10:08:34;;;;;;;12.90;8.48;;;;;;;;;;5069327;27;98513;-81
2023/06/18 10:11:01;;;;;;;;;;;;;;;;;;5065068;27;98710;-80
2023/06/18 10:13:28;;;;;;;10.23;5.57;;;;;;;;;;5053511;27;113719;-78
2023/06/18 10:15:55;;;;;;;12.48;7.13;;;;;;;;;;5058130;27;98813;-83
2023/06/18 10:18:23;;;;;;;12.27;7.60;;;;;;;;;;5055275;27;97891;-80
2023/06/18 10:20:54;;;;;;;12.40;6.40;;;;;;;;;;5062499;27;98425;-78
2023/06/18 10:23:22;;;;;;;12.75;7.68;;;;;;;;;;5054069;27;98872;-79
2023/06/18 10:25:50;;;;;;;12.43;7.50;;;;;;;;;;5070100;27;98917;-79
2023/06/18 10:28:16;;;;;;;;;;;;;;;;;;5054933;27;99271;-78
2023/06/18 10:30:44;;;;;;;13.77;7.25;;;;;;;;;;5054461;27;105551;-81
2023/06/18 10:33:12;;;;;;;12.48;7.47;;;;;;;;;;5068060;27;98214;-78
2023/06/18 10:35:39;;;;;;;12.27;7.20;;;;;;;;;;5054782;27;103468;-81
2023/06/18 10:38:06;;;;;;;;;;;;;;;;;;5058921;27;98412;-79
2023/06/18 10:40:36;;;;;;;13.30;7.53;;;;;;;;;;5064608;27;102608;-78
2023/06/18 10:43:04;;;;;;;13.23;8.68;;;;;;;;;;5057118;27;97903;-81
2023/06/18 10:45:31;;;;;;;13.43;7.93;;;;;;;;;;5053596;27;98665;-80
2023/06/18 10:48:18;;;;;;;12.93;8.18;;;;;;;;;;5054462;27;101405;-80
2023/06/18 10:51:07;;;;;;;14.50;8.68;;;;;;;;;;5069613;27;101907;-80
2023/06/18 10:53:34;;;;;;;13.65;8.35;;;;;;;;;;5050851;27;100623;-78
2023/06/18 10:56:01;;;;;;;13.43;8.63;;;;;;;;;;5056010;27;100501;-79
2023/06/18 10:58:31;;;;;;;15.10;8.60;;;;;;;;;;5065041;27;101335;-80
2023/06/18 11:00:58;;;;;;;13.57;8.73;;;;;;;;;;5053345;27;98435;-79
2023/06/18 11:03:32;;;;;;;16.10;9.20;;;;;;;;;;5056011;27;98989;-79
2023/06/18 11:06:00;;;;;;;12.38;8.93;;;;;;;;;;5059969;27;100228;-80
2023/06/18 11:08:30;;;;;;;13.48;9.10;;;;;;;;;;5063601;27;99455;-79
2023/06/18 11:11:07;;;;;;;12.05;7.80;;;;;;;;;;5067725;27;98862;-78
2023/06/18 11:13:38;;;;;;;13.50;7.90;;;;;;;;;;5056936;27;98828;-77
2023/06/18 11:16:05;;;;;;;13.20;7.18;;;;;;;;;;5055541;27;99207;-76
2023/06/18 11:18:33;;;;;;;11.07;6.93;;;;;;;;;;5060697;27;98310;-76
2023/06/18 11:21:00;;;;;;;10.88;7.07;;;;;;;;;;5060020;27;99868;-75
2023/06/18 11:23:26;;;;;;;;;;;;;;;;;;5062302;27;99971;-76
2023/06/18 11:25:53;;;;;;;10.88;7.45;;;;;;;;;;5063222;27;104894;-75
2023/06/18 11:28:20;;;;;;;10.30;6.60;;;;;;;;;;5059821;27;100380;-76
2023/06/18 11:30:48;;;;;;;;;;;;;;;;;;5064179;27;99095;-76
2023/06/18 11:33:21;;;;;;;12.25;7.85;;;;;;;;;;5063908;27;97772;-77
2023/06/18 11:35:47;;;;;;;;;;;;;;;;;;5061193;27;101055;-76
2023/06/18 11:38:14;;;;;;;13.85;7.05;;;;;;;;;;5062138;27;116634;-77
2023/06/18 11:40:48;;;;;;;10.40;6.57;;;;;;;;;;5055178;27;100204;-77
2023/06/18 11:43:14;;;;;;;11.82;6.68;;;;;;;;;;5058854;27;99296;-77
2023/06/18 11:45:45;;;;;;;11.93;7.10;;;;;;;;;;5061996;27;98468;-77
2023/06/18 11:48:11;;;;;;;11.88;7.40;;;;;;;;;;5062990;27;101586;-75
2023/06/18 11:50:38;;;;;;;10.82;7.30;;;;;;;;;;5058805;27;99926;-76
2023/06/18 11:53:05;;;;;;;11.60;7.50;;;;;;;;;;5054129;27;100813;-77
2023/06/18 11:55:33;;;;;;;11.23;7.10;;;;;;;;;;5037368;27;99608;-77
2023/06/18 11:58:01;;;;;;;10.30;6.85;;;;;;;;;;5054545;27;98729;-77
2023/06/18 12:00:27;;;;;;;12.35;7.68;;;;;;;;;;5063627;27;98795;-77
2023/06/18 12:02:54;;;;;;;11.55;6.95;;;;;;;;;;5057615;27;99428;-77
2023/06/18 12:05:21;;;;;;;12.15;7.10;;;;;;;;;;5057054;27;99868;-76
2023/06/18 12:07:48;;;;;;;14.85;7.32;;;;;;;;;;5054773;27;99722;-76
2023/06/18 12:10:14;;;;;;;10.95;7.15;;;;;;;;;;5047760;27;101406;-76
2023/06/18 12:13:10;;;;;;;13.57;6.97;;;;;;;;;;5056463;27;98395;-74
2023/06/18 12:15:39;;;;;;;13.50;7.20;;;;;;;;;;5041057;27;103419;-75
2023/06/18 12:18:12;;;;;;;12.55;7.45;;;;;;;;;;5061609;27;98688;-76
2023/06/18 12:20:39;;;;;;;11.55;7.00;;;;;;;;;;5066160;27;98466;-77
2023/06/18 12:23:06;;;;;;;20.35;8.70;;;;;;;;;;5064787;27;98723;-77
2023/06/18 12:25:33;;;;;;;12.75;7.13;;;;;;;;;;5046867;27;100012;-76
2023/06/18 12:28:04;;;;;;;11.45;7.38;;;;;;;;;;5060202;27;100212;-77
2023/06/18 12:30:34;;;;;;;11.65;7.32;;;;;;;;;;5063731;27;101007;-76
2023/06/18 12:33:07;;;;;;;14.88;7.72;;;;;;;;;;5064730;27;100301;-76
2023/06/18 12:35:34;;;;;;;12.43;7.18;;;;;;;;;;5067650;27;99496;-75
2023/06/18 12:38:03;;;;;;;12.82;7.82;;;;;;;;;;5062990;27;98913;-77
2023/06/18 12:40:31;;;;;;;16.50;8.20;;;;;;;;;;5066729;27;99037;-76
2023/06/18 12:43:00;;;;;;;12.73;8.05;;;;;;;;;;5064747;27;101042;-76
2023/06/18 12:45:27;;;;;;;11.30;7.18;;;;;;;;;;5066252;27;98998;-78
2023/06/18 12:47:59;;;;;;;10.38;7.15;;;;;;;;;;5066553;27;98812;-77
2023/06/18 12:50:38;;;;;;;10.38;7.10;;;;;;;;;;5065852;27;98725;-76
2023/06/18 12:53:11;;;;;;;13.10;7.43;;;;;;;;;;5066372;27;99751;-78
2023/06/18 12:55:41;;;;;;;9.85;6.70;;;;;;;;;;5082345;27;104861;-77
2023/06/18 12:58:15;;;;;;;12.68;7.72;;;;;;;;;;5060429;27;102019;-75
2023/06/18 13:00:42;;;;;;;11.63;6.93;;;;;;;;;;5061857;27;106099;-77
2023/06/18 13:03:08;;;;;;;15.35;7.20;;;;;;;;;;5065992;27;99303;-78
2023/06/18 13:05:35;;;;;;;11.57;6.60;;;;;;;;;;5061963;27;98856;-77
2023/06/18 13:08:02;;;;;;;11.15;6.72;;;;;;;;;;5062871;27;98550;-77
2023/06/18 13:10:29;;;;;;;11.68;6.75;;;;;;;;;;5064648;27;100290;-77
2023/06/18 13:12:55;;;;;;;11.43;7.40;;;;;;;;;;5046732;27;100245;-77
2023/06/18 13:15:22;;;;;;;11.13;7.22;;;;;;;;;;5041574;27;100617;-76
2023/06/18 13:17:49;;;;;;;;;;;;;;;;;;5060735;27;99738;-77
2023/06/18 13:20:16;;;;;;;9.90;6.88;;;;;;;;;;5065046;27;104299;-76
2023/06/18 13:22:42;;;;;;;10.82;6.45;;;;;;;;;;5060723;27;99405;-77
2023/06/18 13:25:10;;;;;;;11.20;6.82;;;;;;;;;;5055359;27;99543;-77
2023/06/18 13:27:37;;;;;;;13.63;6.90;;;;;;;;;;5056657;27;98215;-77
2023/06/18 13:30:04;;;;;;;10.55;6.43;;;;;;;;;;5058837;27;101721;-77
2023/06/18 13:32:30;;;;;;;12.07;6.30;;;;;;;;;;5069653;27;98961;-77
2023/06/18 13:34:57;;;;;;;11.32;6.65;;;;;;;;;;5056644;27;100809;-77
2023/06/18 13:37:24;;;;;;;10.73;6.80;;;;;;;;;;5053997;27;98188;-78
2023/06/18 13:39:51;;;;;;;13.00;7.57;;;;;;;;;;5066376;27;98885;-77
2023/06/18 13:42:18;;;;;;;9.93;6.63;;;;;;;;;;5053467;27;100682;-77
2023/06/18 13:44:44;;;;;;;12.25;7.53;;;;;;;;;;5062321;27;100272;-76
2023/06/18 13:47:11;;;;;;;10.20;6.60;;;;;;;;;;5064252;27;99440;-77
2023/06/18 13:49:38;;;;;;;9.13;5.95;;;;;;;;;;5055390;27;103097;-76
2023/06/18 13:52:05;;;;;;;10.07;5.82;;;;;;;;;;5059694;27;98696;-77
2023/06/18 13:54:31;;;;;;;8.95;6.07;;;;;;;;;;5058464;27;100249;-76
2023/06/18 13:56:58;;;;;;;11.02;6.40;;;;;;;;;;5050337;27;99134;-76
2023/06/18 13:59:25;;;;;;;9.02;6.30;;;;;;;;;;5059789;27;101289;-76
2023/06/18 14:01:51;;;;;;;10.15;6.50;;;;;;;;;;5072228;27;98500;-76
2023/06/18 14:04:18;;;;;;;9.75;6.47;;;;;;;;;;5060222;27;98701;-76
2023/06/18 14:06:45;;;;;;;;;;;;;;;;;;5055941;27;98424;-76
2023/06/18 14:09:13;;;;;;;9.98;6.35;;;;;;;;;;5052974;27;106640;-76
2023/06/18 14:11:44;;;;;;;9.55;5.90;;;;;;;;;;5062771;27;103101;-76
2023/06/18 14:14:10;;;;;;;12.25;6.65;;;;;;;;;;5065401;27;98858;-76
2023/06/18 14:16:37;;;;;;;8.82;6.10;;;;;;;;;;5059114;27;101332;-77
2023/06/18 14:19:04;;;;;;;10.10;5.95;;;;;;;;;;5067074;27;98742;-77
2023/06/18 14:21:30;;;;;;;14.32;6.25;;;;;;;;;;5071691;27;101302;-76
2023/06/18 14:24:01;;;;;;;10.52;6.70;;;;;;;;;;5062808;27;99218;-76
2023/06/18 14:26:27;;;;;;;11.30;6.38;;;;;;;;;;5055488;27;100051;-77
2023/06/18 14:28:54;;;;;;;9.38;6.50;;;;;;;;;;5057701;27;99747;-77
2023/06/18 14:31:21;;;;;;;10.85;6.45;;;;;;;;;;5052005;27;99304;-76
2023/06/18 14:33:47;;;;;;;13.38;7.18;;;;;;;;;;5056295;27;101556;-78